sensor_id;sensor_type;location;lat;lon;timestamp;temperature;humidity
78571;SHT31;67861;51.966;5.672;2023-06-05T00:01:21;17.2;52.5
78571;SHT31;67861;51.966;5.672;2023-06-05T00:03:51;17.2;52.4
78571;SHT31;67861;51.966;5.672;2023-06-05T00:06:20;17.2;52.2
78571;SHT31;67861;51.966;5.672;2023-06-05T00:08:50;17.2;52.9
78571;SHT31;67861;51.966;5.672;2023-06-05T00:11:19;17.1;52.6
78571;SHT31;67861;51.966;5.672;2023-06-05T00:13:49;17.1;52.8
78571;SHT31;67861;51.966;5.672;2023-06-05T00:16:19;17.0;52.8
78571;SHT31;67861;51.966;5.672;2023-06-05T00:18:49;17.0;53.1
78571;SHT31;67861;51.966;5.672;2023-06-05T00:21:21;17.0;53.1
78571;SHT31;67861;51.966;5.672;2023-06-05T00:23:52;17.0;53.3
78571;SHT31;67861;51.966;5.672;2023-06-05T00:26:21;16.9;53.3
78571;SHT31;67861;51.966;5.672;2023-06-05T00:28:51;16.9;53.5
78571;SHT31;67861;51.966;5.672;2023-06-05T00:31:20;16.9;53.5
78571;SHT31;67861;51.966;5.672;2023-06-05T00:33:51;16.8;53.5
78571;SHT31;67861;51.966;5.672;2023-06-05T00:36:24;16.8;53.7
78571;SHT31;67861;51.966;5.672;2023-06-05T00:38:57;16.8;53.4
78571;SHT31;67861;51.966;5.672;2023-06-05T00:41:28;16.8;53.7
78571;SHT31;67861;51.966;5.672;2023-06-05T00:43:58;16.8;53.8
78571;SHT31;67861;51.966;5.672;2023-06-05T00:46:28;16.8;53.9
78571;SHT31;67861;51.966;5.672;2023-06-05T00:48:59;16.7;53.9
78571;SHT31;67861;51.966;5.672;2023-06-05T00:51:29;16.6;53.8
78571;SHT31;67861;51.966;5.672;2023-06-05T00:53:58;16.6;54.0
78571;SHT31;67861;51.966;5.672;2023-06-05T00:56:28;16.5;54.2
78571;SHT31;67861;51.966;5.672;2023-06-05T00:59:00;16.5;54.6
78571;SHT31;67861;51.966;5.672;2023-06-05T01:01:29;16.4;54.6
78571;SHT31;67861;51.966;5.672;2023-06-05T01:04:01;16.4;54.2
78571;SHT31;67861;51.966;5.672;2023-06-05T01:06:31;16.4;54.9
78571;SHT31;67861;51.966;5.672;2023-06-05T01:09:01;16.4;55.1
78571;SHT31;67861;51.966;5.672;2023-06-05T01:11:38;16.3;55.3
78571;SHT31;67861;51.966;5.672;2023-06-05T01:14:14;16.2;55.4
78571;SHT31;67861;51.966;5.672;2023-06-05T01:16:50;16.2;55.6
78571;SHT31;67861;51.966;5.672;2023-06-05T01:19:21;16.1;55.6
78571;SHT31;67861;51.966;5.672;2023-06-05T01:21:52;16.0;55.8
78571;SHT31;67861;51.966;5.672;2023-06-05T01:24:23;16.0;56.1
78571;SHT31;67861;51.966;5.672;2023-06-05T01:27:04;15.9;56.4
78571;SHT31;67861;51.966;5.672;2023-06-05T01:29:42;15.9;56.3
78571;SHT31;67861;51.966;5.672;2023-06-05T01:32:22;15.9;56.6
78571;SHT31;67861;51.966;5.672;2023-06-05T01:34:54;15.8;56.8
78571;SHT31;67861;51.966;5.672;2023-06-05T01:37:27;15.8;57.0
78571;SHT31;67861;51.966;5.672;2023-06-05T01:40:04;15.7;57.0
78571;SHT31;67861;51.966;5.672;2023-06-05T01:42:34;15.7;57.2
78571;SHT31;67861;51.966;5.672;2023-06-05T01:45:09;15.7;57.2
78571;SHT31;67861;51.966;5.672;2023-06-05T01:47:40;15.6;57.6
78571;SHT31;67861;51.966;5.672;2023-06-05T01:50:10;15.6;57.6
78571;SHT31;67861;51.966;5.672;2023-06-05T01:52:41;15.6;57.8
78571;SHT31;67861;51.966;5.672;2023-06-05T01:55:14;15.6;57.5
78571;SHT31;67861;51.966;5.672;2023-06-05T01:57:44;15.6;57.7
78571;SHT31;67861;51.966;5.672;2023-06-05T02:00:14;15.6;57.6
78571;SHT31;67861;51.966;5.672;2023-06-05T02:02:45;15.6;57.5
78571;SHT31;67861;51.966;5.672;2023-06-05T02:05:17;15.5;57.4
78571;SHT31;67861;51.966;5.672;2023-06-05T02:07:51;15.5;57.8
78571;SHT31;67861;51.966;5.672;2023-06-05T02:10:22;15.4;58.0
78571;SHT31;67861;51.966;5.672;2023-06-05T02:12:52;15.4;58.1
78571;SHT31;67861;51.966;5.672;2023-06-05T02:15:22;15.4;57.6
78571;SHT31;67861;51.966;5.672;2023-06-05T02:17:51;15.3;58.3
78571;SHT31;67861;51.966;5.672;2023-06-05T02:20:24;15.3;58.3
78571;SHT31;67861;51.966;5.672;2023-06-05T02:22:54;15.3;58.2
78571;SHT31;67861;51.966;5.672;2023-06-05T02:25:26;15.2;58.5
78571;SHT31;67861;51.966;5.672;2023-06-05T02:27:55;15.2;58.1
78571;SHT31;67861;51.966;5.672;2023-06-05T02:30:25;15.2;58.7
78571;SHT31;67861;51.966;5.672;2023-06-05T02:32:57;15.2;58.3
78571;SHT31;67861;51.966;5.672;2023-06-05T02:35:28;15.2;58.1
78571;SHT31;67861;51.966;5.672;2023-06-05T02:37:58;15.2;58.2
78571;SHT31;67861;51.966;5.672;2023-06-05T02:40:28;15.2;58.6
78571;SHT31;67861;51.966;5.672;2023-06-05T02:42:58;15.2;58.5
78571;SHT31;67861;51.966;5.672;2023-06-05T02:45:28;15.2;58.5
78571;SHT31;67861;51.966;5.672;2023-06-05T02:48:00;15.1;58.6
78571;SHT31;67861;51.966;5.672;2023-06-05T02:50:29;15.1;58.9
78571;SHT31;67861;51.966;5.672;2023-06-05T02:52:59;15.0;58.7
78571;SHT31;67861;51.966;5.672;2023-06-05T02:55:28;15.0;58.9
78571;SHT31;67861;51.966;5.672;2023-06-05T02:58:00;15.0;59.0
78571;SHT31;67861;51.966;5.672;2023-06-05T03:00:29;15.0;58.9
78571;SHT31;67861;51.966;5.672;2023-06-05T03:02:59;14.9;58.8
78571;SHT31;67861;51.966;5.672;2023-06-05T03:05:28;14.9;58.8
78571;SHT31;67861;51.966;5.672;2023-06-05T03:07:59;14.9;58.7
78571;SHT31;67861;51.966;5.672;2023-06-05T03:10:29;14.9;59.0
78571;SHT31;67861;51.966;5.672;2023-06-05T03:12:58;14.9;59.4
78571;SHT31;67861;51.966;5.672;2023-06-05T03:15:28;14.9;59.4
78571;SHT31;67861;51.966;5.672;2023-06-05T03:17:57;14.9;59.0
78571;SHT31;67861;51.966;5.672;2023-06-05T03:20:27;14.9;59.2
78571;SHT31;67861;51.966;5.672;2023-06-05T03:22:58;14.9;59.2
78571;SHT31;67861;51.966;5.672;2023-06-05T03:25:27;14.8;59.2
78571;SHT31;67861;51.966;5.672;2023-06-05T03:27:57;14.8;59.0
78571;SHT31;67861;51.966;5.672;2023-06-05T03:30:26;14.8;58.6
78571;SHT31;67861;51.966;5.672;2023-06-05T03:32:58;14.8;59.4
78571;SHT31;67861;51.966;5.672;2023-06-05T03:35:28;14.8;59.4
78571;SHT31;67861;51.966;5.672;2023-06-05T03:38:00;14.8;59.2
78571;SHT31;67861;51.966;5.672;2023-06-05T03:40:29;14.7;59.8
78571;SHT31;67861;51.966;5.672;2023-06-05T03:43:01;14.7;59.6
78571;SHT31;67861;51.966;5.672;2023-06-05T03:45:30;14.7;59.7
78571;SHT31;67861;51.966;5.672;2023-06-05T03:48:00;14.7;59.9
78571;SHT31;67861;51.966;5.672;2023-06-05T03:50:30;14.6;59.7
78571;SHT31;67861;51.966;5.672;2023-06-05T03:53:01;14.6;60.1
78571;SHT31;67861;51.966;5.672;2023-06-05T03:55:33;14.6;60.3
78571;SHT31;67861;51.966;5.672;2023-06-05T03:58:11;14.5;60.4
78571;SHT31;67861;51.966;5.672;2023-06-05T04:00:43;14.5;60.8
78571;SHT31;67861;51.966;5.672;2023-06-05T04:03:13;14.5;60.8
78571;SHT31;67861;51.966;5.672;2023-06-05T04:05:42;14.5;60.5
78571;SHT31;67861;51.966;5.672;2023-06-05T04:08:14;14.4;60.7
78571;SHT31;67861;51.966;5.672;2023-06-05T04:10:44;14.4;60.8
78571;SHT31;67861;51.966;5.672;2023-06-05T04:13:13;14.4;60.8
78571;SHT31;67861;51.966;5.672;2023-06-05T04:15:45;14.4;61.0
78571;SHT31;67861;51.966;5.672;2023-06-05T04:18:16;14.4;61.0
78571;SHT31;67861;51.966;5.672;2023-06-05T04:20:47;14.3;61.1
78571;SHT31;67861;51.966;5.672;2023-06-05T04:23:17;14.3;60.7
78571;SHT31;67861;51.966;5.672;2023-06-05T04:25:46;14.3;61.1
78571;SHT31;67861;51.966;5.672;2023-06-05T04:28:16;14.3;61.3
78571;SHT31;67861;51.966;5.672;2023-06-05T04:30:46;14.3;61.5
78571;SHT31;67861;51.966;5.672;2023-06-05T04:33:16;14.3;61.4
78571;SHT31;67861;51.966;5.672;2023-06-05T04:35:46;14.3;61.1
78571;SHT31;67861;51.966;5.672;2023-06-05T04:38:16;14.4;61.5
78571;SHT31;67861;51.966;5.672;2023-06-05T04:40:51;14.4;61.3
78571;SHT31;67861;51.966;5.672;2023-06-05T04:43:22;14.4;61.0
78571;SHT31;67861;51.966;5.672;2023-06-05T04:45:52;14.4;60.6
78571;SHT31;67861;51.966;5.672;2023-06-05T04:48:21;14.4;61.0
78571;SHT31;67861;51.966;5.672;2023-06-05T04:50:52;14.5;61.1
78571;SHT31;67861;51.966;5.672;2023-06-05T04:53:24;14.4;61.0
78571;SHT31;67861;51.966;5.672;2023-06-05T04:55:55;14.4;60.9
78571;SHT31;67861;51.966;5.672;2023-06-05T04:58:32;14.4;61.4
78571;SHT31;67861;51.966;5.672;2023-06-05T05:01:02;14.4;61.5
78571;SHT31;67861;51.966;5.672;2023-06-05T05:03:34;14.4;61.8
78571;SHT31;67861;51.966;5.672;2023-06-05T05:06:04;14.4;61.6
78571;SHT31;67861;51.966;5.672;2023-06-05T05:08:34;14.4;61.9
78571;SHT31;67861;51.966;5.672;2023-06-05T05:11:03;14.4;61.7
78571;SHT31;67861;51.966;5.672;2023-06-05T05:13:32;14.4;61.8
78571;SHT31;67861;51.966;5.672;2023-06-05T05:16:05;14.4;62.0
78571;SHT31;67861;51.966;5.672;2023-06-05T05:18:35;14.4;62.0
78571;SHT31;67861;51.966;5.672;2023-06-05T05:21:04;14.4;62.1
78571;SHT31;67861;51.966;5.672;2023-06-05T05:23:34;14.4;61.9
78571;SHT31;67861;51.966;5.672;2023-06-05T05:26:03;14.5;62.1
78571;SHT31;67861;51.966;5.672;2023-06-05T05:28:33;14.5;62.1
78571;SHT31;67861;51.966;5.672;2023-06-05T05:31:03;14.5;61.8
78571;SHT31;67861;51.966;5.672;2023-06-05T05:33:33;14.5;62.1
78571;SHT31;67861;51.966;5.672;2023-06-05T05:36:03;14.6;62.0
78571;SHT31;67861;51.966;5.672;2023-06-05T05:38:34;14.6;62.2
78571;SHT31;67861;51.966;5.672;2023-06-05T05:41:04;14.6;61.7
78571;SHT31;67861;51.966;5.672;2023-06-05T05:43:33;14.7;62.2
78571;SHT31;67861;51.966;5.672;2023-06-05T05:46:03;14.7;61.9
78571;SHT31;67861;51.966;5.672;2023-06-05T05:48:35;14.7;61.7
78571;SHT31;67861;51.966;5.672;2023-06-05T05:51:07;14.8;61.5
78571;SHT31;67861;51.966;5.672;2023-06-05T05:53:36;14.8;61.4
78571;SHT31;67861;51.966;5.672;2023-06-05T05:56:06;14.8;61.3
78571;SHT31;67861;51.966;5.672;2023-06-05T05:58:35;14.9;61.8
78571;SHT31;67861;51.966;5.672;2023-06-05T06:01:05;14.9;61.4
78571;SHT31;67861;51.966;5.672;2023-06-05T06:03:34;15.0;61.5
78571;SHT31;67861;51.966;5.672;2023-06-05T06:06:05;15.1;60.5
78571;SHT31;67861;51.966;5.672;2023-06-05T06:08:35;15.2;60.5
78571;SHT31;67861;51.966;5.672;2023-06-05T06:11:08;15.2;60.1
78571;SHT31;67861;51.966;5.672;2023-06-05T06:13:38;15.3;60.2
78571;SHT31;67861;51.966;5.672;2023-06-05T06:16:09;15.3;60.0
78571;SHT31;67861;51.966;5.672;2023-06-05T06:18:38;15.4;59.7
78571;SHT31;67861;51.966;5.672;2023-06-05T06:21:08;15.4;59.4
78571;SHT31;67861;51.966;5.672;2023-06-05T06:23:38;15.5;59.1
78571;SHT31;67861;51.966;5.672;2023-06-05T06:26:08;15.5;59.3
78571;SHT31;67861;51.966;5.672;2023-06-05T06:28:39;15.6;59.1
78571;SHT31;67861;51.966;5.672;2023-06-05T06:31:09;15.6;59.5
78571;SHT31;67861;51.966;5.672;2023-06-05T06:33:39;15.7;58.7
78571;SHT31;67861;51.966;5.672;2023-06-05T06:36:10;15.8;58.2
78571;SHT31;67861;51.966;5.672;2023-06-05T06:38:40;15.8;58.2
78571;SHT31;67861;51.966;5.672;2023-06-05T06:41:10;15.9;58.2
78571;SHT31;67861;51.966;5.672;2023-06-05T06:43:39;15.9;57.9
78571;SHT31;67861;51.966;5.672;2023-06-05T06:46:09;16.0;57.8
78571;SHT31;67861;51.966;5.672;2023-06-05T06:48:39;16.0;57.5
78571;SHT31;67861;51.966;5.672;2023-06-05T06:51:08;16.1;57.5
78571;SHT31;67861;51.966;5.672;2023-06-05T06:53:38;16.2;57.1
78571;SHT31;67861;51.966;5.672;2023-06-05T06:56:08;16.3;57.3
78571;SHT31;67861;51.966;5.672;2023-06-05T06:58:37;16.4;56.5
78571;SHT31;67861;51.966;5.672;2023-06-05T07:01:07;16.4;56.5
78571;SHT31;67861;51.966;5.672;2023-06-05T07:03:40;16.5;56.5
78571;SHT31;67861;51.966;5.672;2023-06-05T07:06:10;16.6;56.3
78571;SHT31;67861;51.966;5.672;2023-06-05T07:08:41;16.6;56.5
78571;SHT31;67861;51.966;5.672;2023-06-05T07:11:12;16.7;56.0
78571;SHT31;67861;51.966;5.672;2023-06-05T07:13:42;16.8;55.6
78571;SHT31;67861;51.966;5.672;2023-06-05T07:16:11;16.8;55.0
78571;SHT31;67861;51.966;5.672;2023-06-05T07:18:41;16.9;55.5
78571;SHT31;67861;51.966;5.672;2023-06-05T07:21:11;17.0;54.9
78571;SHT31;67861;51.966;5.672;2023-06-05T07:23:40;17.0;54.6
78571;SHT31;67861;51.966;5.672;2023-06-05T07:26:12;17.1;54.3
78571;SHT31;67861;51.966;5.672;2023-06-05T07:28:43;17.2;54.6
78571;SHT31;67861;51.966;5.672;2023-06-05T07:31:15;17.3;54.2
78571;SHT31;67861;51.966;5.672;2023-06-05T07:33:45;17.3;53.6
78571;SHT31;67861;51.966;5.672;2023-06-05T07:36:15;17.4;54.0
78571;SHT31;67861;51.966;5.672;2023-06-05T07:38:45;17.5;54.0
78571;SHT31;67861;51.966;5.672;2023-06-05T07:41:14;17.6;54.2
78571;SHT31;67861;51.966;5.672;2023-06-05T07:43:44;17.7;52.2
78571;SHT31;67861;51.966;5.672;2023-06-05T07:46:13;17.7;52.2
78571;SHT31;67861;51.966;5.672;2023-06-05T07:48:44;17.8;53.0
78571;SHT31;67861;51.966;5.672;2023-06-05T07:51:13;17.9;52.5
78571;SHT31;67861;51.966;5.672;2023-06-05T07:53:45;18.0;52.0
78571;SHT31;67861;51.966;5.672;2023-06-05T07:56:15;18.0;52.0
78571;SHT31;67861;51.966;5.672;2023-06-05T07:58:47;18.1;52.6
78571;SHT31;67861;51.966;5.672;2023-06-05T08:01:17;18.2;53.2
78571;SHT31;67861;51.966;5.672;2023-06-05T08:03:48;18.2;52.0
78571;SHT31;67861;51.966;5.672;2023-06-05T08:06:17;18.3;52.2
78571;SHT31;67861;51.966;5.672;2023-06-05T08:11:05;18.5;51.2
78571;SHT31;67861;51.966;5.672;2023-06-05T08:13:36;18.6;51.1
78571;SHT31;67861;51.966;5.672;2023-06-05T08:16:06;18.7;52.0
78571;SHT31;67861;51.966;5.672;2023-06-05T08:18:44;18.9;50.5
78571;SHT31;67861;51.966;5.672;2023-06-05T08:21:14;19.0;51.1
78571;SHT31;67861;51.966;5.672;2023-06-05T08:23:44;19.2;49.9
78571;SHT31;67861;51.966;5.672;2023-06-05T08:26:19;19.3;51.2
78571;SHT31;67861;51.966;5.672;2023-06-05T08:30:44;19.4;49.2
78571;SHT31;67861;51.966;5.672;2023-06-05T08:33:16;19.6;49.2
78571;SHT31;67861;51.966;5.672;2023-06-05T08:35:45;19.7;48.5
78571;SHT31;67861;51.966;5.672;2023-06-05T08:38:15;19.7;48.1
78571;SHT31;67861;51.966;5.672;2023-06-05T08:40:45;19.8;48.8
78571;SHT31;67861;51.966;5.672;2023-06-05T08:43:18;19.9;48.3
78571;SHT31;67861;51.966;5.672;2023-06-05T08:45:50;20.0;48.6
78571;SHT31;67861;51.966;5.672;2023-06-05T08:48:21;20.0;48.0
78571;SHT31;67861;51.966;5.672;2023-06-05T08:50:51;20.1;47.5
78571;SHT31;67861;51.966;5.672;2023-06-05T08:53:23;20.2;47.7
78571;SHT31;67861;51.966;5.672;2023-06-05T08:55:55;20.3;47.3
78571;SHT31;67861;51.966;5.672;2023-06-05T08:58:25;20.4;48.0
78571;SHT31;67861;51.966;5.672;2023-06-05T09:00:55;20.4;47.0
78571;SHT31;67861;51.966;5.672;2023-06-05T09:03:26;20.5;47.0
78571;SHT31;67861;51.966;5.672;2023-06-05T09:06:04;20.6;46.8
78571;SHT31;67861;51.966;5.672;2023-06-05T09:08:34;20.7;46.7
78571;SHT31;67861;51.966;5.672;2023-06-05T09:11:24;20.9;46.6
78571;SHT31;67861;51.966;5.672;2023-06-05T09:13:56;21.0;46.2
78571;SHT31;67861;51.966;5.672;2023-06-05T09:16:35;21.1;45.6
78571;SHT31;67861;51.966;5.672;2023-06-05T09:19:07;21.2;45.1
78571;SHT31;67861;51.966;5.672;2023-06-05T09:21:52;21.3;45.5
78571;SHT31;67861;51.966;5.672;2023-06-05T09:24:23;21.5;45.4
78571;SHT31;67861;51.966;5.672;2023-06-05T09:26:56;21.6;45.2
78571;SHT31;67861;51.966;5.672;2023-06-05T09:29:30;21.7;44.4
78571;SHT31;67861;51.966;5.672;2023-06-05T09:32:01;21.8;45.1
78571;SHT31;67861;51.966;5.672;2023-06-05T09:34:32;21.9;43.5
78571;SHT31;67861;51.966;5.672;2023-06-05T09:37:03;22.0;44.2
78571;SHT31;67861;51.966;5.672;2023-06-05T09:39:36;22.0;43.7
78571;SHT31;67861;51.966;5.672;2023-06-05T09:42:07;22.1;44.0
78571;SHT31;67861;51.966;5.672;2023-06-05T09:44:36;22.2;45.1
78571;SHT31;67861;51.966;5.672;2023-06-05T09:47:07;22.3;44.0
78571;SHT31;67861;51.966;5.672;2023-06-05T09:49:47;22.4;43.5
78571;SHT31;67861;51.966;5.672;2023-06-05T09:52:17;22.5;42.1
78571;SHT31;67861;51.966;5.672;2023-06-05T09:54:56;22.6;43.8
78571;SHT31;67861;51.966;5.672;2023-06-05T09:57:31;22.7;42.2
78571;SHT31;67861;51.966;5.672;2023-06-05T10:00:03;22.8;41.5
78571;SHT31;67861;51.966;5.672;2023-06-05T10:02:36;22.9;42.0
78571;SHT31;67861;51.966;5.672;2023-06-05T10:05:09;23.0;41.8
78571;SHT31;67861;51.966;5.672;2023-06-05T10:07:41;23.0;42.4
78571;SHT31;67861;51.966;5.672;2023-06-05T10:10:11;23.1;41.7
78571;SHT31;67861;51.966;5.672;2023-06-05T10:12:44;23.2;41.6
78571;SHT31;67861;51.966;5.672;2023-06-05T10:15:14;23.3;41.7
78571;SHT31;67861;51.966;5.672;2023-06-05T10:17:50;23.4;41.0
78571;SHT31;67861;51.966;5.672;2023-06-05T10:20:26;23.4;40.9
78571;SHT31;67861;51.966;5.672;2023-06-05T10:22:56;23.5;41.4
78571;SHT31;67861;51.966;5.672;2023-06-05T10:25:28;23.6;40.2
78571;SHT31;67861;51.966;5.672;2023-06-05T10:30:32;23.7;40.9
78571;SHT31;67861;51.966;5.672;2023-06-05T10:33:51;23.9;40.5
78571;SHT31;67861;51.966;5.672;2023-06-05T10:36:47;24.1;40.0
78571;SHT31;67861;51.966;5.672;2023-06-05T10:39:18;24.3;40.1
78571;SHT31;67861;51.966;5.672;2023-06-05T10:41:51;24.4;39.1
78571;SHT31;67861;51.966;5.672;2023-06-05T10:44:39;24.5;40.0
78571;SHT31;67861;51.966;5.672;2023-06-05T10:50:22;24.7;39.3
78571;SHT31;67861;51.966;5.672;2023-06-05T10:52:58;24.9;39.3
78571;SHT31;67861;51.966;5.672;2023-06-05T10:55:43;25.0;38.7
78571;SHT31;67861;51.966;5.672;2023-06-05T10:58:13;25.1;39.2
78571;SHT31;67861;51.966;5.672;2023-06-05T11:01:22;25.3;37.3
78571;SHT31;67861;51.966;5.672;2023-06-05T11:03:56;25.4;38.3
78571;SHT31;67861;51.966;5.672;2023-06-05T11:06:26;25.5;37.1
78571;SHT31;67861;51.966;5.672;2023-06-05T11:09:10;25.6;36.8
78571;SHT31;67861;51.966;5.672;2023-06-05T11:11:57;25.7;36.8
78571;SHT31;67861;51.966;5.672;2023-06-05T11:14:43;25.7;36.7
78571;SHT31;67861;51.966;5.672;2023-06-05T11:17:27;25.8;36.6
78571;SHT31;67861;51.966;5.672;2023-06-05T11:19:57;25.9;37.9
78571;SHT31;67861;51.966;5.672;2023-06-05T11:22:27;25.9;36.8
78571;SHT31;67861;51.966;5.672;2023-06-05T11:25:28;26.0;37.1
78571;SHT31;67861;51.966;5.672;2023-06-05T11:28:01;26.1;35.9
78571;SHT31;67861;51.966;5.672;2023-06-05T11:30:40;26.1;36.2
78571;SHT31;67861;51.966;5.672;2023-06-05T11:33:12;26.1;37.9
78571;SHT31;67861;51.966;5.672;2023-06-05T11:35:45;26.2;35.7
78571;SHT31;67861;51.966;5.672;2023-06-05T11:38:16;26.3;36.4
78571;SHT31;67861;51.966;5.672;2023-06-05T11:40:46;26.4;36.7
